sensor_id;sensor_type;location;lat;lon;timestamp;pressure;altitude;pressure_sealevel;temperature;humidity
78990;BME280;68390;52.130;21.218;2023-10-13T00:01:01;100594.53;;;5.94;100.00
78990;BME280;68390;52.130;21.218;2023-10-13T00:03:30;100601.41;;;5.88;100.00
78990;BME280;68390;52.130;21.218;2023-10-13T00:05:58;100593.00;;;5.80;100.00
78990;BME280;68390;52.130;21.218;2023-10-13T00:08:28;100594.69;;;5.81;100.00
78990;BME280;68390;52.130;21.218;2023-10-13T00:10:54;100597.72;;;5.78;100.00
78990;BME280;68390;52.130;21.218;2023-10-13T00:13:28;100607.88;;;5.76;100.00
78990;BME280;68390;52.130;21.218;2023-10-13T00:15:57;100606.88;;;5.77;100.00
78990;BME280;68390;52.130;21.218;2023-10-13T00:18:26;100601.56;;;5.76;100.00
78990;BME280;68390;52.130;21.218;2023-10-13T00:20:53;100600.41;;;5.69;100.00
78990;BME280;68390;52.130;21.218;2023-10-13T00:23:22;100596.06;;;5.66;100.00
78990;BME280;68390;52.130;21.218;2023-10-13T00:25:49;100607.09;;;5.65;100.00
78990;BME280;68390;52.130;21.218;2023-10-13T00:28:28;100600.91;;;5.63;100.00
78990;BME280;68390;52.130;21.218;2023-10-13T00:31:01;100596.63;;;5.60;100.00
78990;BME280;68390;52.130;21.218;2023-10-13T00:33:37;100597.00;;;5.56;100.00
78990;BME280;68390;52.130;21.218;2023-10-13T00:36:03;100606.03;;;5.56;100.00
78990;BME280;68390;52.130;21.218;2023-10-13T00:38:30;100604.97;;;5.47;100.00
78990;BME280;68390;52.130;21.218;2023-10-13T00:40:55;100623.44;;;5.44;100.00
78990;BME280;68390;52.130;21.218;2023-10-13T00:43:22;100618.13;;;5.42;100.00
78990;BME280;68390;52.130;21.218;2023-10-13T00:48:25;100611.22;;;5.38;100.00
78990;BME280;68390;52.130;21.218;2023-10-13T00:51:05;100614.34;;;5.34;100.00
78990;BME280;68390;52.130;21.218;2023-10-13T00:53:39;100621.31;;;5.27;100.00
78990;BME280;68390;52.130;21.218;2023-10-13T00:56:06;100615.88;;;5.27;100.00
78990;BME280;68390;52.130;21.218;2023-10-13T00:58:35;100621.88;;;5.30;100.00
78990;BME280;68390;52.130;21.218;2023-10-13T01:01:03;100621.03;;;5.30;100.00
78990;BME280;68390;52.130;21.218;2023-10-13T01:03:53;100622.19;;;5.27;100.00
78990;BME280;68390;52.130;21.218;2023-10-13T01:06:25;100617.25;;;5.21;100.00
78990;BME280;68390;52.130;21.218;2023-10-13T01:11:23;100621.28;;;5.06;100.00
78990;BME280;68390;52.130;21.218;2023-10-13T01:13:49;100614.34;;;5.02;100.00
78990;BME280;68390;52.130;21.218;2023-10-13T01:16:19;100607.72;;;4.95;100.00
78990;BME280;68390;52.130;21.218;2023-10-13T01:18:49;100615.88;;;4.95;100.00
78990;BME280;68390;52.130;21.218;2023-10-13T01:21:18;100629.34;;;4.96;100.00
78990;BME280;68390;52.130;21.218;2023-10-13T01:23:46;100627.25;;;4.89;100.00
78990;BME280;68390;52.130;21.218;2023-10-13T01:26:13;100643.94;;;4.95;100.00
78990;BME280;68390;52.130;21.218;2023-10-13T01:28:49;100646.88;;;5.03;100.00
78990;BME280;68390;52.130;21.218;2023-10-13T01:31:14;100642.94;;;5.07;100.00
78990;BME280;68390;52.130;21.218;2023-10-13T01:33:50;100642.53;;;5.12;100.00
78990;BME280;68390;52.130;21.218;2023-10-13T01:36:19;100649.31;;;5.18;100.00
78990;BME280;68390;52.130;21.218;2023-10-13T01:38:44;100643.59;;;5.21;100.00
78990;BME280;68390;52.130;21.218;2023-10-13T01:41:11;100650.53;;;5.25;100.00
78990;BME280;68390;52.130;21.218;2023-10-13T01:43:38;100637.16;;;5.22;100.00
78990;BME280;68390;52.130;21.218;2023-10-13T01:46:03;100639.63;;;5.25;100.00
78990;BME280;68390;52.130;21.218;2023-10-13T01:48:29;100640.50;;;5.25;100.00
78990;BME280;68390;52.130;21.218;2023-10-13T01:50:57;100644.47;;;5.21;100.00
78990;BME280;68390;52.130;21.218;2023-10-13T01:53:26;100641.16;;;5.18;100.00
78990;BME280;68390;52.130;21.218;2023-10-13T01:55:54;100651.31;;;5.15;100.00
78990;BME280;68390;52.130;21.218;2023-10-13T01:58:22;100633.03;;;5.06;100.00
78990;BME280;68390;52.130;21.218;2023-10-13T02:00:48;100632.81;;;4.98;100.00
78990;BME280;68390;52.130;21.218;2023-10-13T02:03:14;100630.47;;;4.94;100.00
78990;BME280;68390;52.130;21.218;2023-10-13T02:05:45;100633.31;;;4.92;100.00
78990;BME280;68390;52.130;21.218;2023-10-13T02:08:18;100631.84;;;4.88;100.00
78990;BME280;68390;52.130;21.218;2023-10-13T02:10:49;100638.28;;;4.87;100.00
78990;BME280;68390;52.130;21.218;2023-10-13T02:13:16;100629.38;;;4.85;100.00
78990;BME280;68390;52.130;21.218;2023-10-13T02:15:46;100623.94;;;4.85;100.00
78990;BME280;68390;52.130;21.218;2023-10-13T02:18:14;100634.31;;;4.91;100.00
78990;BME280;68390;52.130;21.218;2023-10-13T02:20:48;100626.38;;;4.88;100.00
78990;BME280;68390;52.130;21.218;2023-10-13T02:23:21;100630.59;;;4.92;100.00
78990;BME280;68390;52.130;21.218;2023-10-13T02:25:46;100629.59;;;4.93;100.00
78990;BME280;68390;52.130;21.218;2023-10-13T02:28:12;100643.72;;;4.98;100.00
78990;BME280;68390;52.130;21.218;2023-10-13T02:30:46;100629.81;;;5.01;100.00
78990;BME280;68390;52.130;21.218;2023-10-13T02:33:16;100634.75;;;5.07;100.00
78990;BME280;68390;52.130;21.218;2023-10-13T02:35:56;100642.41;;;5.13;100.00
78990;BME280;68390;52.130;21.218;2023-10-13T02:38:22;100641.88;;;5.20;100.00
78990;BME280;68390;52.130;21.218;2023-10-13T02:40:58;100639.63;;;5.25;100.00
78990;BME280;68390;52.130;21.218;2023-10-13T02:43:35;100639.63;;;5.25;100.00
78990;BME280;68390;52.130;21.218;2023-10-13T02:46:03;100642.34;;;5.25;100.00
78990;BME280;68390;52.130;21.218;2023-10-13T02:48:30;100629.59;;;5.25;100.00
78990;BME280;68390;52.130;21.218;2023-10-13T02:51:06;100632.19;;;5.27;100.00
78990;BME280;68390;52.130;21.218;2023-10-13T02:53:49;100632.44;;;5.24;100.00
78990;BME280;68390;52.130;21.218;2023-10-13T02:56:15;100635.91;;;5.26;100.00
78990;BME280;68390;52.130;21.218;2023-10-13T02:58:52;100636.03;;;5.24;100.00
78990;BME280;68390;52.130;21.218;2023-10-13T03:01:35;100629.72;;;5.24;100.00
78990;BME280;68390;52.130;21.218;2023-10-13T03:04:02;100639.38;;;5.28;100.00
78990;BME280;68390;52.130;21.218;2023-10-13T03:06:35;100638.09;;;5.32;100.00
78990;BME280;68390;52.130;21.218;2023-10-13T03:09:03;100630.41;;;5.37;100.00
78990;BME280;68390;52.130;21.218;2023-10-13T03:11:42;100643.50;;;5.43;100.00
78990;BME280;68390;52.130;21.218;2023-10-13T03:14:22;100632.34;;;5.46;100.00
78990;BME280;68390;52.130;21.218;2023-10-13T03:17:01;100635.69;;;5.49;100.00
78990;BME280;68390;52.130;21.218;2023-10-13T03:19:42;100632.78;;;5.51;100.00
78990;BME280;68390;52.130;21.218;2023-10-13T03:22:11;100620.91;;;5.52;100.00
78990;BME280;68390;52.130;21.218;2023-10-13T03:24:40;100633.41;;;5.54;100.00
78990;BME280;68390;52.130;21.218;2023-10-13T03:27:17;100629.81;;;5.54;100.00
78990;BME280;68390;52.130;21.218;2023-10-13T03:29:47;100630.06;;;5.51;100.00
78990;BME280;68390;52.130;21.218;2023-10-13T03:32:14;100631.09;;;5.50;100.00
78990;BME280;68390;52.130;21.218;2023-10-13T03:34:44;100624.19;;;5.46;100.00
78990;BME280;68390;52.130;21.218;2023-10-13T03:37:25;100616.25;;;5.43;100.00
78990;BME280;68390;52.130;21.218;2023-10-13T03:40:08;100623.69;;;5.41;100.00
78990;BME280;68390;52.130;21.218;2023-10-13T03:42:52;100632.16;;;5.38;100.00
78990;BME280;68390;52.130;21.218;2023-10-13T03:45:41;100632.16;;;5.38;100.00
78990;BME280;68390;52.130;21.218;2023-10-13T03:48:15;100623.97;;;5.38;100.00
78990;BME280;68390;52.130;21.218;2023-10-13T03:51:01;100613.47;;;5.33;100.00
78990;BME280;68390;52.130;21.218;2023-10-13T03:53:27;100623.75;;;5.30;100.00
78990;BME280;68390;52.130;21.218;2023-10-13T03:55:52;100629.94;;;5.32;100.00
78990;BME280;68390;52.130;21.218;2023-10-13T03:58:42;100638.09;;;5.32;100.00
78990;BME280;68390;52.130;21.218;2023-10-13T04:01:11;100632.66;;;5.32;100.00
78990;BME280;68390;52.130;21.218;2023-10-13T04:03:40;100635.66;;;5.29;100.00
78990;BME280;68390;52.130;21.218;2023-10-13T04:06:23;100635.66;;;5.29;100.00
78990;BME280;68390;52.130;21.218;2023-10-13T04:09:08;100630.47;;;5.26;100.00
78990;BME280;68390;52.130;21.218;2023-10-13T04:12:00;100634.19;;;5.25;100.00
78990;BME280;68390;52.130;21.218;2023-10-13T04:14:36;100634.19;;;5.25;100.00
78990;BME280;68390;52.130;21.218;2023-10-13T04:17:20;100637.78;;;5.25;100.00
78990;BME280;68390;52.130;21.218;2023-10-13T04:19:51;100638.16;;;5.21;100.00
78990;BME280;68390;52.130;21.218;2023-10-13T04:25:13;100650.19;;;5.18;100.00
78990;BME280;68390;52.130;21.218;2023-10-13T04:27:58;100654.28;;;5.12;100.00
78990;BME280;68390;52.130;21.218;2023-10-13T04:30:48;100647.22;;;5.10;100.00
78990;BME280;68390;52.130;21.218;2023-10-13T04:38:54;100637.41;;;4.98;100.00
78990;BME280;68390;52.130;21.218;2023-10-13T04:41:30;100641.97;;;4.97;100.00
78990;BME280;68390;52.130;21.218;2023-10-13T04:44:08;100633.56;;;4.89;100.00
78990;BME280;68390;52.130;21.218;2023-10-13T04:46:54;100636.44;;;4.88;100.00
78990;BME280;68390;52.130;21.218;2023-10-13T04:49:34;100641.47;;;4.92;100.00
78990;BME280;68390;52.130;21.218;2023-10-13T04:52:02;100640.50;;;4.93;100.00
78990;BME280;68390;52.130;21.218;2023-10-13T04:54:34;100640.38;;;4.95;100.00
78990;BME280;68390;52.130;21.218;2023-10-13T04:57:20;100642.06;;;5.07;100.00
78990;BME280;68390;52.130;21.218;2023-10-13T04:59:52;100642.41;;;5.13;100.00
78990;BME280;68390;52.130;21.218;2023-10-13T05:02:30;100630.25;;;5.18;100.00
78990;BME280;68390;52.130;21.218;2023-10-13T05:07:51;100636.91;;;5.25;100.00
78990;BME280;68390;52.130;21.218;2023-10-13T05:10:36;100637.91;;;5.24;100.00
78990;BME280;68390;52.130;21.218;2023-10-13T05:13:20;100641.25;;;5.27;100.00
78990;BME280;68390;52.130;21.218;2023-10-13T05:16:05;100649.13;;;5.30;100.00
78990;BME280;68390;52.130;21.218;2023-10-13T05:18:48;100648.00;;;5.33;100.00
78990;BME280;68390;52.130;21.218;2023-10-13T05:21:33;100642.56;;;5.33;100.00
78990;BME280;68390;52.130;21.218;2023-10-13T05:24:16;100642.75;;;5.41;100.00
78990;BME280;68390;52.130;21.218;2023-10-13T05:27:00;100634.47;;;5.42;100.00
78990;BME280;68390;52.130;21.218;2023-10-13T05:29:45;100644.72;;;5.50;100.00
78990;BME280;68390;52.130;21.218;2023-10-13T05:32:30;100651.94;;;5.61;100.00
78990;BME280;68390;52.130;21.218;2023-10-13T05:35:15;100657.47;;;5.70;100.00
78990;BME280;68390;52.130;21.218;2023-10-13T05:37:59;100660.66;;;5.75;100.00
78990;BME280;68390;52.130;21.218;2023-10-13T05:40:53;100669.63;;;5.87;100.00
78990;BME280;68390;52.130;21.218;2023-10-13T05:43:37;100675.16;;;5.97;100.00
78990;BME280;68390;52.130;21.218;2023-10-13T05:46:21;100683.53;;;6.05;100.00
78990;BME280;68390;52.130;21.218;2023-10-13T05:48:53;100686.19;;;6.16;100.00
78990;BME280;68390;52.130;21.218;2023-10-13T05:51:25;100690.06;;;6.23;100.00
78990;BME280;68390;52.130;21.218;2023-10-13T05:54:10;100701.19;;;6.31;100.00
78990;BME280;68390;52.130;21.218;2023-10-13T05:56:48;100690.84;;;6.35;100.00
78990;BME280;68390;52.130;21.218;2023-10-13T05:59:34;100701.38;;;6.39;100.00
78990;BME280;68390;52.130;21.218;2023-10-13T06:02:20;100705.84;;;6.40;100.00
78990;BME280;68390;52.130;21.218;2023-10-13T06:05:06;100708.88;;;6.47;100.00
78990;BME280;68390;52.130;21.218;2023-10-13T06:07:51;100714.94;;;6.50;100.00
78990;BME280;68390;52.130;21.218;2023-10-13T06:10:36;100726.28;;;6.55;100.00
78990;BME280;68390;52.130;21.218;2023-10-13T06:13:20;100728.88;;;6.57;100.00
78990;BME280;68390;52.130;21.218;2023-10-13T06:16:08;100744.28;;;6.68;100.00
78990;BME280;68390;52.130;21.218;2023-10-13T06:18:52;100737.00;;;6.78;100.00
78990;BME280;68390;52.130;21.218;2023-10-13T06:21:37;100733.31;;;6.88;100.00
78990;BME280;68390;52.130;21.218;2023-10-13T06:24:21;100723.13;;;7.00;100.00
78990;BME280;68390;52.130;21.218;2023-10-13T06:27:04;100719.56;;;7.09;100.00
78990;BME280;68390;52.130;21.218;2023-10-13T06:29:50;100718.44;;;7.21;100.00
78990;BME280;68390;52.130;21.218;2023-10-13T06:32:16;100717.59;;;7.30;100.00
78990;BME280;68390;52.130;21.218;2023-10-13T06:34:42;100728.84;;;7.47;100.00
78990;BME280;68390;52.130;21.218;2023-10-13T06:37:14;100735.72;;;7.60;100.00
78990;BME280;68390;52.130;21.218;2023-10-13T06:39:55;100722.50;;;7.75;100.00
78990;BME280;68390;52.130;21.218;2023-10-13T06:42:48;100721.38;;;7.87;100.00
78990;BME280;68390;52.130;21.218;2023-10-13T06:45:13;100736.00;;;8.05;100.00
78990;BME280;68390;52.130;21.218;2023-10-13T06:47:41;100727.66;;;8.17;100.00
78990;BME280;68390;52.130;21.218;2023-10-13T06:50:11;100735.97;;;8.34;100.00
78990;BME280;68390;52.130;21.218;2023-10-13T06:52:50;100720.88;;;8.40;100.00
78990;BME280;68390;52.130;21.218;2023-10-13T06:55:16;100731.03;;;8.57;100.00
78990;BME280;68390;52.130;21.218;2023-10-13T06:57:46;100738.03;;;8.69;100.00
78990;BME280;68390;52.130;21.218;2023-10-13T07:00:12;100721.56;;;8.79;100.00
78990;BME280;68390;52.130;21.218;2023-10-13T07:02:47;100718.78;;;8.89;100.00
78990;BME280;68390;52.130;21.218;2023-10-13T07:05:13;100724.78;;;9.02;100.00
78990;BME280;68390;52.130;21.218;2023-10-13T07:07:39;100716.50;;;9.11;100.00
78990;BME280;68390;52.130;21.218;2023-10-13T07:10:12;100726.38;;;9.22;100.00
78990;BME280;68390;52.130;21.218;2023-10-13T07:12:41;100730.38;;;9.28;100.00
78990;BME280;68390;52.130;21.218;2023-10-13T07:15:10;100730.63;;;9.34;100.00
78990;BME280;68390;52.130;21.218;2023-10-13T07:17:46;100725.53;;;9.39;100.00
78990;BME280;68390;52.130;21.218;2023-10-13T07:20:12;100722.16;;;9.45;100.00
78990;BME280;68390;52.130;21.218;2023-10-13T07:22:49;100722.50;;;9.60;100.00
78990;BME280;68390;52.130;21.218;2023-10-13T07:25:34;100722.41;;;9.70;100.00
78990;BME280;68390;52.130;21.218;2023-10-13T07:28:07;100719.44;;;9.81;100.00
78990;BME280;68390;52.130;21.218;2023-10-13T07:30:34;100718.50;;;9.90;100.00
78990;BME280;68390;52.130;21.218;2023-10-13T07:33:19;100717.38;;;10.01;100.00
78990;BME280;68390;52.130;21.218;2023-10-13T07:35:48;100714.16;;;10.05;100.00
78990;BME280;68390;52.130;21.218;2023-10-13T07:38:17;100707.16;;;10.11;100.00
78990;BME280;68390;52.130;21.218;2023-10-13T07:40:46;100718.38;;;10.17;100.00
78990;BME280;68390;52.130;21.218;2023-10-13T07:43:17;100709.84;;;10.20;100.00
78990;BME280;68390;52.130;21.218;2023-10-13T07:45:47;100728.09;;;10.29;100.00
78990;BME280;68390;52.130;21.218;2023-10-13T07:48:16;100718.53;;;10.34;100.00
78990;BME280;68390;52.130;21.218;2023-10-13T07:50:46;100723.34;;;10.40;100.00
78990;BME280;68390;52.130;21.218;2023-10-13T07:53:12;100713.94;;;10.42;100.00
78990;BME280;68390;52.130;21.218;2023-10-13T07:55:50;100712.59;;;10.46;100.00
78990;BME280;68390;52.130;21.218;2023-10-13T07:58:24;100706.44;;;10.52;100.00
78990;BME280;68390;52.130;21.218;2023-10-13T08:00:52;100714.38;;;10.55;100.00
78990;BME280;68390;52.130;21.218;2023-10-13T08:03:35;100703.59;;;10.62;100.00
78990;BME280;68390;52.130;21.218;2023-10-13T08:06:09;100704.84;;;10.68;100.00
78990;BME280;68390;52.130;21.218;2023-10-13T08:08:38;100705.34;;;10.71;100.00
78990;BME280;68390;52.130;21.218;2023-10-13T08:11:07;100705.56;;;10.78;100.00
78990;BME280;68390;52.130;21.218;2023-10-13T08:13:41;100706.44;;;10.78;100.00
78990;BME280;68390;52.130;21.218;2023-10-13T08:16:14;100699.41;;;10.84;100.00
78990;BME280;68390;52.130;21.218;2023-10-13T08:18:49;100700.81;;;10.88;100.00
78990;BME280;68390;52.130;21.218;2023-10-13T08:21:18;100693.31;;;10.98;100.00
78990;BME280;68390;52.130;21.218;2023-10-13T08:23:52;100689.56;;;11.07;100.00
78990;BME280;68390;52.130;21.218;2023-10-13T08:26:24;100695.22;;;11.14;100.00
78990;BME280;68390;52.130;21.218;2023-10-13T08:29:03;100697.13;;;11.21;100.00
78990;BME280;68390;52.130;21.218;2023-10-13T08:31:48;100689.41;;;11.25;100.00
78990;BME280;68390;52.130;21.218;2023-10-13T08:34:29;100692.53;;;11.30;100.00
78990;BME280;68390;52.130;21.218;2023-10-13T08:37:04;100686.34;;;11.28;100.00
78990;BME280;68390;52.130;21.218;2023-10-13T08:39:45;100687.03;;;11.30;100.00
78990;BME280;68390;52.130;21.218;2023-10-13T08:42:25;100680.53;;;11.39;100.00
78990;BME280;68390;52.130;21.218;2023-10-13T08:45:13;100667.66;;;11.48;100.00
78990;BME280;68390;52.130;21.218;2023-10-13T08:48:07;100682.81;;;11.60;100.00
78990;BME280;68390;52.130;21.218;2023-10-13T08:50:46;100663.72;;;11.58;100.00
78990;BME280;68390;52.130;21.218;2023-10-13T08:53:14;100669.91;;;11.60;100.00
78990;BME280;68390;52.130;21.218;2023-10-13T08:58:28;100673.19;;;11.72;99.81
78990;BME280;68390;52.130;21.218;2023-10-13T09:01:12;100671.97;;;11.74;100.00
78990;BME280;68390;52.130;21.218;2023-10-13T09:03:40;100673.72;;;11.75;99.44
78990;BME280;68390;52.130;21.218;2023-10-13T09:06:14;100673.84;;;11.74;98.82
78990;BME280;68390;52.130;21.218;2023-10-13T09:08:45;100673.38;;;11.79;99.68
78990;BME280;68390;52.130;21.218;2023-10-13T09:11:34;100673.22;;;11.88;99.60
78990;BME280;68390;52.130;21.218;2023-10-13T09:14:14;100675.78;;;12.06;99.66
78990;BME280;68390;52.130;21.218;2023-10-13T09:17:05;100663.38;;;12.18;97.69
78990;BME280;68390;52.130;21.218;2023-10-13T09:19:52;100670.06;;;12.32;96.28
78990;BME280;68390;52.130;21.218;2023-10-13T09:22:28;100673.31;;;12.43;97.88
78990;BME280;68390;52.130;21.218;2023-10-13T09:25:03;100662.44;;;12.50;95.55
78990;BME280;68390;52.130;21.218;2023-10-13T09:27:38;100671.88;;;12.64;95.19
78990;BME280;68390;52.130;21.218;2023-10-13T09:30:05;100669.59;;;12.75;94.36
78990;BME280;68390;52.130;21.218;2023-10-13T09:33:02;100665.41;;;12.87;93.80
78990;BME280;68390;52.130;21.218;2023-10-13T09:35:31;100671.38;;;12.99;94.60
78990;BME280;68390;52.130;21.218;2023-10-13T09:38:00;100666.72;;;13.08;93.81
78990;BME280;68390;52.130;21.218;2023-10-13T09:40:28;100665.28;;;13.20;93.44
78990;BME280;68390;52.130;21.218;2023-10-13T09:43:00;100652.72;;;13.17;90.96
78990;BME280;68390;52.130;21.218;2023-10-13T09:45:40;100658.44;;;13.08;89.41
78990;BME280;68390;52.130;21.218;2023-10-13T09:48:11;100651.38;;;13.05;89.02
78990;BME280;68390;52.130;21.218;2023-10-13T09:50:47;100649.97;;;13.09;88.80
78990;BME280;68390;52.130;21.218;2023-10-13T09:53:16;100647.88;;;13.19;89.32
78990;BME280;68390;52.130;21.218;2023-10-13T09:55:54;100635.63;;;13.22;87.76
78990;BME280;68390;52.130;21.218;2023-10-13T09:58:29;100635.38;;;13.32;87.45
78990;BME280;68390;52.130;21.218;2023-10-13T10:01:06;100633.63;;;13.39;88.11
78990;BME280;68390;52.130;21.218;2023-10-13T10:03:46;100627.91;;;13.40;86.75
78990;BME280;68390;52.130;21.218;2023-10-13T10:06:32;100622.53;;;13.47;88.62
78990;BME280;68390;52.130;21.218;2023-10-13T10:09:08;100618.31;;;13.59;89.54
78990;BME280;68390;52.130;21.218;2023-10-13T10:12:09;100621.69;;;13.69;88.52
78990;BME280;68390;52.130;21.218;2023-10-13T10:17:41;100614.66;;;13.81;88.63
78990;BME280;68390;52.130;21.218;2023-10-13T10:20:07;100622.56;;;13.84;88.85
78990;BME280;68390;52.130;21.218;2023-10-13T10:22:40;100615.16;;;13.85;89.09
78990;BME280;68390;52.130;21.218;2023-10-13T10:25:12;100606.31;;;13.89;88.12
78990;BME280;68390;52.130;21.218;2023-10-13T10:28:00;100608.22;;;13.89;87.79
78990;BME280;68390;52.130;21.218;2023-10-13T10:30:29;100601.25;;;13.93;88.92
78990;BME280;68390;52.130;21.218;2023-10-13T10:32:58;100606.06;;;13.99;88.27
78990;BME280;68390;52.130;21.218;2023-10-13T10:35:27;100593.28;;;14.13;88.95
78990;BME280;68390;52.130;21.218;2023-10-13T10:40:56;100593.88;;;14.23;87.00
78990;BME280;68390;52.130;21.218;2023-10-13T10:43:24;100583.13;;;14.28;88.90
78990;BME280;68390;52.130;21.218;2023-10-13T10:45:51;100586.16;;;14.33;88.70
78990;BME280;68390;52.130;21.218;2023-10-13T10:48:17;100584.06;;;14.35;88.29
78990;BME280;68390;52.130;21.218;2023-10-13T10:50:55;100582.50;;;14.41;89.70
78990;BME280;68390;52.130;21.218;2023-10-13T10:53:24;100582.09;;;14.44;88.99
78990;BME280;68390;52.130;21.218;2023-10-13T10:56:09;100578.09;;;14.46;88.53
78990;BME280;68390;52.130;21.218;2023-10-13T10:58:58;100583.31;;;14.56;87.89
78990;BME280;68390;52.130;21.218;2023-10-13T11:01:26;100568.94;;;14.60;89.32
78990;BME280;68390;52.130;21.218;2023-10-13T11:04:03;100554.53;;;14.65;87.60
78990;BME280;68390;52.130;21.218;2023-10-13T11:06:53;100553.97;;;14.69;89.02
78990;BME280;68390;52.130;21.218;2023-10-13T11:09:26;100549.19;;;14.78;88.04
78990;BME280;68390;52.130;21.218;2023-10-13T11:11:53;100545.84;;;14.83;89.04
78990;BME280;68390;52.130;21.218;2023-10-13T11:14:25;100548.50;;;14.91;87.98
78990;BME280;68390;52.130;21.218;2023-10-13T11:16:52;100533.88;;;14.97;88.48
78990;BME280;68390;52.130;21.218;2023-10-13T11:19:41;100538.50;;;15.11;87.34
78990;BME280;68390;52.130;21.218;2023-10-13T11:22:11;100535.47;;;15.27;87.59
78990;BME280;68390;52.130;21.218;2023-10-13T11:24:55;100538.69;;;15.31;85.52
78990;BME280;68390;52.130;21.218;2023-10-13T11:27:20;100522.75;;;15.33;86.11
78990;BME280;68390;52.130;21.218;2023-10-13T11:29:46;100524.91;;;15.37;87.22
78990;BME280;68390;52.130;21.218;2023-10-13T11:32:17;100524.91;;;15.37;86.65
78990;BME280;68390;52.130;21.218;2023-10-13T11:34:45;100515.56;;;15.38;85.41
78990;BME280;68390;52.130;21.218;2023-10-13T11:37:17;100518.59;;;15.43;86.16
78990;BME280;68390;52.130;21.218;2023-10-13T11:40:04;100505.69;;;15.51;86.64
78990;BME280;68390;52.130;21.218;2023-10-13T11:42:38;100507.72;;;15.63;86.28
78990;BME280;68390;52.130;21.218;2023-10-13T11:45:09;100505.31;;;15.82;85.96
78990;BME280;68390;52.130;21.218;2023-10-13T11:47:53;100501.59;;;15.96;84.21
78990;BME280;68390;52.130;21.218;2023-10-13T11:50:25;100499.97;;;16.08;84.88
78990;BME280;68390;52.130;21.218;2023-10-13T11:53:00;100487.59;;;16.10;85.40
78990;BME280;68390;52.130;21.218;2023-10-13T11:55:26;100489.75;;;16.08;84.57
78990;BME280;68390;52.130;21.218;2023-10-13T11:57:52;100483.78;;;16.11;84.75
78990;BME280;68390;52.130;21.218;2023-10-13T12:00:17;100486.81;;;16.17;84.68
78990;BME280;68390;52.130;21.218;2023-10-13T12:03:02;100485.97;;;16.23;85.05
78990;BME280;68390;52.130;21.218;2023-10-13T12:05:45;100484.31;;;16.35;85.35
78990;BME280;68390;52.130;21.218;2023-10-13T12:08:29;100475.25;;;16.54;84.79
78990;BME280;68390;52.130;21.218;2023-10-13T12:10:58;100473.88;;;16.71;83.87
78990;BME280;68390;52.130;21.218;2023-10-13T12:13:46;100472.81;;;16.85;82.72
78990;BME280;68390;52.130;21.218;2023-10-13T12:16:11;100462.38;;;16.94;83.02
78990;BME280;68390;52.130;21.218;2023-10-13T12:18:38;100464.13;;;17.02;81.61
78990;BME280;68390;52.130;21.218;2023-10-13T12:21:09;100458.78;;;17.07;82.14
78990;BME280;68390;52.130;21.218;2023-10-13T12:23:36;100450.88;;;17.04;82.31
78990;BME280;68390;52.130;21.218;2023-10-13T12:26:02;100455.78;;;17.15;81.94
78990;BME280;68390;52.130;21.218;2023-10-13T12:28:31;100445.78;;;17.20;81.69
78990;BME280;68390;52.130;21.218;2023-10-13T12:31:05;100453.25;;;17.27;81.11
78990;BME280;68390;52.130;21.218;2023-10-13T12:33:33;100452.19;;;17.28;81.19
78990;BME280;68390;52.130;21.218;2023-10-13T12:36:06;100445.78;;;17.27;81.05
78990;BME280;68390;52.130;21.218;2023-10-13T12:38:38;100435.94;;;17.24;80.71
78990;BME280;68390;52.130;21.218;2023-10-13T12:41:22;100428.06;;;17.21;81.69
78990;BME280;68390;52.130;21.218;2023-10-13T12:44:06;100427.63;;;17.24;81.86
78990;BME280;68390;52.130;21.218;2023-10-13T12:46:51;100412.03;;;17.23;81.76
78990;BME280;68390;52.130;21.218;2023-10-13T12:49:36;100421.84;;;17.26;81.81
78990;BME280;68390;52.130;21.218;2023-10-13T12:52:11;100416.31;;;17.19;82.54
78990;BME280;68390;52.130;21.218;2023-10-13T12:55:00;100407.34;;;17.24;82.75
78990;BME280;68390;52.130;21.218;2023-10-13T12:57:35;100403.06;;;17.28;82.07
78990;BME280;68390;52.130;21.218;2023-10-13T13:00:09;100415.03;;;17.22;82.12
78990;BME280;68390;52.130;21.218;2023-10-13T13:02:42;100409.25;;;17.17;82.39
78990;BME280;68390;52.130;21.218;2023-10-13T13:05:07;100415.25;;;17.07;83.13
78990;BME280;68390;52.130;21.218;2023-10-13T13:07:38;100398.59;;;17.01;83.40
78990;BME280;68390;52.130;21.218;2023-10-13T13:10:15;100391.97;;;16.95;84.06
78990;BME280;68390;52.130;21.218;2023-10-13T13:12:43;100390.91;;;16.90;84.21
78990;BME280;68390;52.130;21.218;2023-10-13T13:15:09;100389.81;;;16.84;84.14
78990;BME280;68390;52.130;21.218;2023-10-13T13:17:38;100404.13;;;16.81;84.59
78990;BME280;68390;52.130;21.218;2023-10-13T13:20:05;100406.47;;;16.77;85.24
78990;BME280;68390;52.130;21.218;2023-10-13T13:22:37;100400.47;;;16.74;85.33
78990;BME280;68390;52.130;21.218;2023-10-13T13:25:03;100402.59;;;16.72;85.82
78990;BME280;68390;52.130;21.218;2023-10-13T13:27:33;100388.72;;;16.72;85.88
78990;BME280;68390;52.130;21.218;2023-10-13T13:29:58;100385.75;;;16.73;86.01
78990;BME280;68390;52.130;21.218;2023-10-13T13:32:24;100375.72;;;16.72;86.37
78990;BME280;68390;52.130;21.218;2023-10-13T13:34:52;100375.31;;;16.75;86.37
78990;BME280;68390;52.130;21.218;2023-10-13T13:37:29;100373.59;;;16.74;86.78
78990;BME280;68390;52.130;21.218;2023-10-13T13:39:54;100373.38;;;16.69;87.08